Time;durP1;ratioP1;P1;durP2;ratioP2;P2;SDS_P1;SDS_P2;PMS_P1;PMS_P2;Temp;Humidity;BMP_temperature;BMP_pressure;BME280_temperature;BME280_humidity;BME280_pressure;Samples;Min_cycle;Max_cycle;Signal;HPM_P1;HPM_P2
2023/03/26 00:01:35;;;;;;;33.28;5.10;;;;;;;-144.73;100.00;54522.63;4983884;28;20469;-73
2023/03/26 00:04:01;;;;;;;45.17;5.28;;;;;;;-144.73;100.00;54563.69;4974202;28;20023;-73
2023/03/26 00:06:29;;;;;;;35.42;5.78;;;;;;;-144.73;100.00;54551.38;4973068;28;20030;-77
2023/03/26 00:08:56;;;;;;;34.75;6.38;;;;;;;-144.73;100.00;54571.91;4996917;28;20018;-83
2023/03/26 00:11:24;;;;;;;37.08;6.40;;;;;;;-144.73;100.00;54493.91;4988080;28;20022;-79
2023/03/26 00:13:52;;;;;;;44.92;6.13;;;;;;;-144.73;100.00;54539.06;4988754;28;20026;-79
2023/03/26 00:16:18;;;;;;;41.72;6.80;;;;;;;-144.73;100.00;54559.59;4983674;28;20496;-77
2023/03/26 00:18:45;;;;;;;40.42;7.00;;;;;;;-144.73;100.00;54526.75;4977110;28;20018;-77
2023/03/26 00:21:15;;;;;;;31.60;6.22;;;;;;;-144.73;100.00;54539.06;4984197;28;20038;-84
2023/03/26 00:23:41;;;;;;;53.88;7.88;;;;;;;-144.73;100.00;54551.38;4998744;28;20027;-83
2023/03/26 00:26:09;;;;;;;42.13;6.72;;;;;;;-144.73;100.00;54576.00;4988384;28;20030;-80
2023/03/26 00:28:36;;;;;;;33.95;5.35;;;;;;;-144.73;100.00;54551.38;5001592;28;20045;-79
2023/03/26 00:31:04;;;;;;;33.00;5.18;;;;;;;-144.73;100.00;54555.47;4999026;28;20061;-84
2023/03/26 00:33:30;;;;;;;31.15;5.13;;;;;;;-144.73;100.00;54514.44;4989492;28;20079;-78
2023/03/26 00:35:59;;;;;;;35.85;6.47;;;;;;;-144.73;100.00;54539.06;4975078;28;20037;-78
2023/03/26 00:38:27;;;;;;;33.63;6.28;;;;;;;-144.73;100.00;54514.44;4993796;28;20037;-80
2023/03/26 00:40:53;;;;;;;48.92;7.97;;;;;;;-144.73;100.00;54580.13;4982053;28;20042;-82
2023/03/26 00:43:22;;;;;;;34.35;6.40;;;;;;;-144.73;100.00;54580.13;4984002;28;20030;-84
2023/03/26 00:45:51;;;;;;;36.88;6.45;;;;;;;-144.73;100.00;54580.13;4985934;28;20026;-83
2023/03/26 00:48:17;;;;;;;47.08;7.53;;;;;;;-144.73;100.00;54565.75;4986362;28;20034;-82
2023/03/26 00:50:45;;;;;;;36.78;5.75;;;;;;;-144.73;100.00;54543.16;4993615;28;20046;-81
2023/03/26 00:53:12;;;;;;;49.47;6.57;;;;;;;-144.73;100.00;54563.69;4990243;28;20022;-81
2023/03/26 00:55:39;;;;;;;32.15;6.15;;;;;;;-144.73;100.00;54551.38;4984476;28;20034;-82
2023/03/26 00:58:04;;;;;;;28.15;5.82;;;;;;;-144.73;100.00;54578.06;4985820;28;20053;-82
2023/03/26 01:00:35;;;;;;;36.55;6.53;;;;;;;-144.73;100.00;54592.44;4984376;28;20034;-84
2023/03/26 01:03:01;;;;;;;40.28;6.47;;;;;;;-144.73;100.00;54559.59;4983314;28;20069;-77
2023/03/26 01:05:32;;;;;;;52.03;6.95;;;;;;;-144.73;100.00;54559.59;4970570;28;20050;-79
2023/03/26 01:08:30;;;;;;;29.70;5.07;;;;;;;-144.73;100.00;54539.06;4991804;28;20034;-76
2023/03/26 01:11:02;;;;;;;37.17;5.70;;;;;;;-144.73;100.00;54576.00;4998896;28;20086;-81
2023/03/26 01:13:31;;;;;;;30.98;5.95;;;;;;;-144.73;100.00;54559.59;4993586;28;20022;-80
2023/03/26 01:16:00;;;;;;;30.05;5.53;;;;;;;-144.73;100.00;54539.06;4982961;28;20038;-79
2023/03/26 01:18:32;;;;;;;30.15;5.30;;;;;;;-144.73;100.00;54520.59;4980995;28;20019;-81
2023/03/26 01:21:04;;;;;;;24.38;4.55;;;;;;;-144.73;100.00;54551.38;4984400;28;20014;-83
2023/03/26 01:23:55;;;;;;;24.05;4.93;;;;;;;-144.73;100.00;54571.91;5001610;28;20121;-84
2023/03/26 01:26:43;;;;;;;18.45;4.30;;;;;;;-144.73;100.00;54522.63;4997886;28;20614;-79
2023/03/26 01:29:20;;;;;;;27.98;4.55;;;;;;;-144.73;100.00;54565.75;4999341;28;20053;-79
2023/03/26 01:32:02;;;;;;;15.75;4.28;;;;;;;-144.73;100.00;54588.31;4989160;28;20022;-80
2023/03/26 01:34:40;;;;;;;19.42;3.30;;;;;;;-144.73;100.00;54539.06;4992268;28;20018;-85
2023/03/26 01:37:14;;;;;;;14.90;3.78;;;;;;;-144.73;100.00;54559.59;4996530;28;20046;-83
2023/03/26 01:39:48;;;;;;;13.20;3.35;;;;;;;-144.73;100.00;54547.28;5010122;28;20022;-82
2023/03/26 01:42:45;;;;;;;15.05;2.88;;;;;;;-144.73;100.00;54569.84;5011887;28;20065;-81
2023/03/26 01:45:22;;;;;;;20.02;2.92;;;;;;;-144.73;100.00;54559.59;4983328;28;20030;-82
2023/03/26 01:47:48;;;;;;;18.30;3.13;;;;;;;-144.73;100.00;54571.91;4988877;28;20048;-81
2023/03/26 01:50:14;;;;;;;19.45;3.55;;;;;;;-144.73;100.00;54510.31;4990977;28;20045;-79
2023/03/26 01:52:39;;;;;;;23.42;3.55;;;;;;;-144.73;100.00;54565.75;4996781;28;20420;-79
2023/03/26 01:55:10;;;;;;;27.75;4.00;;;;;;;-144.73;100.00;54567.81;4984860;28;20105;-77
2023/03/26 01:57:54;;;;;;;35.20;4.63;;;;;;;-144.73;100.00;54543.16;4974534;28;20018;-76
2023/03/26 02:00:34;;;;;;;30.85;4.40;;;;;;;-144.73;100.00;54580.13;4972442;28;20034;-76
2023/03/26 02:03:19;;;;;;;27.75;3.95;;;;;;;-144.73;100.00;54543.16;4985581;28;20022;-75
2023/03/26 02:06:00;;;;;;;27.48;4.07;;;;;;;-144.73;100.00;54559.59;4990928;28;20106;-75
2023/03/26 02:08:40;;;;;;;34.30;5.20;;;;;;;-144.73;100.00;54539.06;4976338;28;20032;-74
2023/03/26 02:11:11;;;;;;;35.80;5.63;;;;;;;-144.73;100.00;54547.28;4975709;28;20302;-74
2023/03/26 02:13:43;;;;;;;38.17;5.53;;;;;;;-144.73;100.00;54567.81;4976576;28;20022;-74
2023/03/26 02:16:15;;;;;;;37.35;5.43;;;;;;;-144.73;100.00;54541.13;4992594;28;20030;-73
2023/03/26 02:18:46;;;;;;;35.92;6.25;;;;;;;-144.73;100.00;54549.31;4993767;28;20130;-73
2023/03/26 02:21:19;;;;;;;42.75;5.72;;;;;;;-144.73;100.00;54551.38;4977127;28;20026;-73
2023/03/26 02:23:45;;;;;;;38.03;4.57;;;;;;;-144.73;100.00;54555.47;4992386;28;20076;-72
2023/03/26 02:26:13;;;;;;;37.60;4.93;;;;;;;-144.73;100.00;54592.44;4991694;28;20026;-73
2023/03/26 02:28:39;;;;;;;46.55;4.07;;;;;;;-144.73;100.00;54571.91;4976154;28;20061;-73
2023/03/26 02:31:04;;;;;;;25.40;3.92;;;;;;;-144.73;100.00;54543.16;4975301;28;20031;-73
2023/03/26 02:33:30;;;;;;;38.97;4.82;;;;;;;-144.73;100.00;54543.16;4982169;28;20029;-72
2023/03/26 02:36:00;;;;;;;39.13;5.40;;;;;;;-144.73;100.00;54563.69;4975169;28;20072;-73
2023/03/26 02:38:32;;;;;;;28.08;3.53;;;;;;;-144.73;100.00;54551.38;4973546;28;20064;-72
2023/03/26 02:40:58;;;;;;;29.08;4.35;;;;;;;-144.73;100.00;54510.31;4975207;28;20026;-73
2023/03/26 02:43:23;;;;;;;25.02;4.43;;;;;;;-144.73;100.00;54588.31;4990973;28;20121;-73
2023/03/26 02:45:49;;;;;;;34.70;4.47;;;;;;;-144.73;100.00;54543.16;4975477;28;20042;-73
2023/03/26 02:48:15;;;;;;;40.40;4.60;;;;;;;-144.73;100.00;54530.84;4973747;28;20018;-73
2023/03/26 02:50:40;;;;;;;29.63;5.35;;;;;;;-144.73;100.00;54551.38;4975537;28;20109;-73
2023/03/26 02:53:06;;;;;;;42.80;4.60;;;;;;;-144.73;100.00;54557.53;4975781;28;20033;-70
2023/03/26 02:55:31;;;;;;;24.63;3.53;;;;;;;-144.73;100.00;54600.63;4975135;28;20035;-73
2023/03/26 02:57:58;;;;;;;30.08;3.88;;;;;;;-144.73;100.00;54567.81;4974566;28;20049;-74
2023/03/26 03:00:24;;;;;;;30.67;4.07;;;;;;;-144.73;100.00;54559.59;4992766;28;20094;-79
2023/03/26 03:02:51;;;;;;;25.98;4.35;;;;;;;-144.73;100.00;54559.59;4989084;28;20078;-81
2023/03/26 03:05:18;;;;;;;35.30;4.43;;;;;;;-144.73;100.00;54571.91;4988789;28;20045;-82
2023/03/26 03:07:46;;;;;;;36.30;5.13;;;;;;;-144.73;100.00;54555.47;4991915;28;20038;-82
2023/03/26 03:10:13;;;;;;;24.02;3.60;;;;;;;-144.73;100.00;54539.06;4996473;28;20018;-80
2023/03/26 03:12:40;;;;;;;12.55;2.72;;;;;;;-144.73;100.00;54555.47;5006697;28;20033;-82
2023/03/26 03:15:07;;;;;;;20.13;2.88;;;;;;;-144.73;100.00;54592.44;4984168;28;20026;-81
2023/03/26 03:17:32;;;;;;;21.60;3.33;;;;;;;-144.73;100.00;54539.06;4986037;28;20026;-81
2023/03/26 03:19:58;;;;;;;17.90;2.67;;;;;;;-144.73;100.00;54553.44;5005562;28;20026;-80
2023/03/26 03:22:23;;;;;;;24.15;4.05;;;;;;;-144.73;100.00;54567.81;4987328;28;20060;-78
2023/03/26 03:24:50;;;;;;;29.15;3.33;;;;;;;-144.73;100.00;54586.28;4984708;28;20022;-77
2023/03/26 03:27:19;;;;;;;21.38;3.95;;;;;;;-144.73;100.00;54559.59;4981624;28;20501;-77
2023/03/26 03:29:45;;;;;;;25.20;3.60;;;;;;;-144.73;100.00;54547.28;4975874;28;20030;-76
2023/03/26 03:32:11;;;;;;;23.17;3.70;;;;;;;-144.73;100.00;54543.16;4970831;28;20050;-75
2023/03/26 03:34:37;;;;;;;27.40;3.60;;;;;;;-144.73;100.00;54555.47;4990649;28;20014;-76
2023/03/26 03:37:03;;;;;;;17.00;3.78;;;;;;;-144.73;100.00;54576.00;4984850;28;20038;-75
2023/03/26 03:39:29;;;;;;;9.98;2.92;;;;;;;-144.73;100.00;54555.47;4984038;28;20018;-75
2023/03/26 03:41:54;;;;;;;36.95;3.63;;;;;;;-144.73;100.00;54580.13;4975364;28;20037;-75
2023/03/26 03:44:20;;;;;;;27.92;4.10;;;;;;;-144.73;100.00;54559.59;4983265;28;20105;-75
2023/03/26 03:46:47;;;;;;;24.17;3.42;;;;;;;-144.73;100.00;54567.81;4990702;28;20030;-74
2023/03/26 03:49:13;;;;;;;24.92;3.83;;;;;;;-144.73;100.00;54588.31;4973977;28;20030;-74
2023/03/26 03:51:39;;;;;;;25.85;3.10;;;;;;;-144.73;100.00;54539.06;4988735;28;20034;-74
2023/03/26 03:54:05;;;;;;;27.63;2.88;;;;;;;-144.73;100.00;54547.28;4973991;28;20022;-74
2023/03/26 03:56:30;;;;;;;23.95;3.50;;;;;;;-144.73;100.00;54559.59;4973575;28;20037;-74
2023/03/26 03:58:57;;;;;;;21.40;3.10;;;;;;;-144.73;100.00;54584.22;4992078;28;20018;-74
2023/03/26 04:01:22;;;;;;;27.55;3.33;;;;;;;-144.73;100.00;54580.13;4973355;28;20038;-73
2023/03/26 04:03:48;;;;;;;31.65;3.75;;;;;;;-144.73;100.00;54584.22;4975034;28;20034;-73
2023/03/26 04:06:17;;;;;;;26.52;3.28;;;;;;;-144.73;100.00;54590.38;4973023;28;20065;-74
2023/03/26 04:08:44;;;;;;;20.25;4.15;;;;;;;-144.73;100.00;54547.28;4973669;28;20050;-74
2023/03/26 04:11:10;;;;;;;35.35;3.88;;;;;;;-144.73;100.00;54530.84;4989885;28;20120;-73
2023/03/26 04:13:36;;;;;;;30.25;4.50;;;;;;;-144.73;100.00;54543.16;4990332;28;20086;-74
2023/03/26 04:16:01;;;;;;;24.80;3.78;;;;;;;-144.73;100.00;54563.69;4978689;28;20111;-73
2023/03/26 04:18:28;;;;;;;26.00;4.20;;;;;;;-144.73;100.00;54539.06;4973865;28;20022;-73
2023/03/26 04:20:54;;;;;;;32.78;4.18;;;;;;;-144.73;100.00;54584.22;4973295;28;20038;-73
2023/03/26 04:23:21;;;;;;;30.35;4.45;;;;;;;-144.73;100.00;54571.91;4983960;28;20022;-73
2023/03/26 04:25:53;;;;;;;30.63;3.45;;;;;;;-144.73;100.00;54563.69;4990771;28;20026;-74
2023/03/26 04:28:27;;;;;;;25.88;3.33;;;;;;;-144.73;100.00;54571.91;4990652;28;20019;-73
2023/03/26 04:30:54;;;;;;;27.05;3.85;;;;;;;-144.73;100.00;54571.91;4973295;28;20100;-73
2023/03/26 04:33:20;;;;;;;39.78;4.32;;;;;;;-144.73;100.00;54547.28;4974106;28;20026;-72
2023/03/26 04:35:47;;;;;;;36.10;5.38;;;;;;;-144.73;100.00;54539.06;4973359;28;20026;-73
2023/03/26 04:38:15;;;;;;;36.03;3.55;;;;;;;-144.73;100.00;54559.59;4991740;28;20035;-72
2023/03/26 04:40:42;;;;;;;29.17;4.38;;;;;;;-144.73;100.00;54530.84;4989285;28;20137;-72
2023/03/26 04:43:16;;;;;;;33.40;4.13;;;;;;;-144.73;100.00;54493.91;4973687;28;20037;-73
2023/03/26 04:45:44;;;;;;;36.60;4.65;;;;;;;-144.73;99.88;54567.81;4973575;28;20122;-72
2023/03/26 04:48:13;;;;;;;26.27;3.80;;;;;;;-144.73;99.43;54588.31;4991303;28;20125;-73
2023/03/26 04:50:44;;;;;;;30.15;4.13;;;;;;;-144.73;99.48;54580.13;4973189;28;20121;-71
2023/03/26 04:53:14;;;;;;;18.17;3.42;;;;;;;-144.73;98.14;54584.22;4991625;28;20026;-72
2023/03/26 04:56:01;;;;;;;25.00;3.50;;;;;;;-144.73;98.84;54539.06;4971981;28;20030;-72
2023/03/26 04:58:31;;;;;;;25.83;3.72;;;;;;;-144.73;99.28;54580.13;4988828;28;20113;-71
2023/03/26 05:01:02;;;;;;;21.95;3.47;;;;;;;-144.73;100.00;54555.47;4958406;28;20034;-72
2023/03/26 05:03:31;;;;;;;39.03;3.95;;;;;;;-144.73;100.00;54539.06;4976532;28;20117;-72
2023/03/26 05:05:58;;;;;;;32.58;2.65;;;;;;;-144.73;100.00;54547.28;4972772;28;20043;-72
2023/03/26 05:08:25;;;;;;;24.38;3.28;;;;;;;-144.73;100.00;54571.91;4978750;28;20053;-71
2023/03/26 05:10:51;;;;;;;38.38;4.40;;;;;;;-144.73;100.00;54539.06;4990514;28;20039;-72
2023/03/26 05:13:16;;;;;;;18.25;3.10;;;;;;;-144.73;100.00;54561.63;4990982;28;20038;-72
2023/03/26 05:15:42;;;;;;;23.83;3.38;;;;;;;-144.73;100.00;54522.63;4974068;28;20037;-72
2023/03/26 05:18:07;;;;;;;15.98;2.40;;;;;;;-144.73;100.00;54522.63;4989743;28;20037;-73
2023/03/26 05:20:33;;;;;;;24.35;3.42;;;;;;;-144.73;100.00;54539.06;4972834;28;20097;-72
2023/03/26 05:22:58;;;;;;;17.33;2.50;;;;;;;-144.73;100.00;54539.06;4990859;28;20374;-73
2023/03/26 05:25:24;;;;;;;21.00;2.40;;;;;;;-144.73;100.00;54563.69;4972739;28;20057;-72
2023/03/26 05:27:49;;;;;;;24.27;2.78;;;;;;;-144.73;100.00;54555.47;4981778;28;20945;-72
2023/03/26 05:30:18;;;;;;;14.80;2.35;;;;;;;-144.73;100.00;54539.06;5000711;28;20030;-72
2023/03/26 05:32:47;;;;;;;21.88;2.65;;;;;;;-144.73;100.00;54541.13;4982346;28;20053;-72
2023/03/26 05:35:15;;;;;;;21.63;3.20;;;;;;;-144.73;100.00;54543.16;4988544;28;20030;-72
2023/03/26 05:37:44;;;;;;;27.38;4.72;;;;;;;-144.73;100.00;54580.13;4965095;28;20035;-72
2023/03/26 05:40:11;;;;;;;20.83;2.90;;;;;;;-144.73;100.00;54551.38;4979398;28;20080;-72
2023/03/26 05:42:38;;;;;;;21.85;3.03;;;;;;;-144.73;100.00;54543.16;4977356;28;20066;-72
2023/03/26 05:45:08;;;;;;;25.02;2.95;;;;;;;-144.73;100.00;54547.28;4993039;28;20022;-72
2023/03/26 05:47:37;;;;;;;18.85;2.75;;;;;;;-144.73;100.00;54555.47;4993172;28;20023;-71
2023/03/26 05:50:04;;;;;;;19.67;2.60;;;;;;;-144.73;100.00;54576.00;4977309;28;20033;-72
2023/03/26 05:52:31;;;;;;;36.83;3.70;;;;;;;-144.73;100.00;54547.28;4993278;28;20026;-72
2023/03/26 05:54:56;;;;;;;21.08;3.88;;;;;;;-144.73;100.00;54612.97;4993938;28;20124;-72
2023/03/26 05:57:22;;;;;;;23.88;3.42;;;;;;;-144.73;100.00;54539.06;4975859;28;20109;-72
2023/03/26 05:59:49;;;;;;;16.13;3.50;;;;;;;-144.73;100.00;54539.06;4974819;28;20026;-72
2023/03/26 06:02:14;;;;;;;19.98;2.72;;;;;;;-144.73;100.00;54563.69;4976603;28;20077;-71
2023/03/26 06:04:41;;;;;;;33.13;3.53;;;;;;;-144.73;100.00;54539.06;4976733;28;20120;-72
2023/03/26 06:07:10;;;;;;;29.63;3.97;;;;;;;-144.73;100.00;54553.44;4976025;28;20038;-72
2023/03/26 06:09:39;;;;;;;19.48;3.42;;;;;;;-144.73;100.00;54561.63;4977236;28;20481;-71
2023/03/26 06:12:06;;;;;;;15.93;3.03;;;;;;;-144.73;100.00;54539.06;4991882;28;20039;-70
2023/03/26 06:14:32;;;;;;;16.80;2.42;;;;;;;-144.73;100.00;54539.06;4981079;28;20053;-72
2023/03/26 06:16:57;;;;;;;29.00;3.80;;;;;;;-144.73;100.00;54582.16;5000128;28;20046;-72
2023/03/26 06:19:22;;;;;;;14.43;2.25;;;;;;;-144.73;100.00;54547.28;4976444;28;20034;-72
2023/03/26 06:21:48;;;;;;;25.63;2.58;;;;;;;-144.73;100.00;54563.69;4992408;28;20046;-73
2023/03/26 06:24:15;;;;;;;30.60;4.40;;;;;;;-144.73;100.00;54543.16;4976415;28;20057;-72
2023/03/26 06:26:41;;;;;;;28.92;4.07;;;;;;;-144.73;100.00;54563.69;4964714;28;20074;-72
2023/03/26 06:29:06;;;;;;;22.95;3.13;;;;;;;-144.73;100.00;54563.69;4987883;28;20038;-73
2023/03/26 06:31:35;;;;;;;21.45;3.42;;;;;;;-144.73;100.00;54506.22;4975941;28;20053;-72
2023/03/26 06:34:01;;;;;;;21.67;3.95;;;;;;;-144.73;100.00;54559.59;4976808;28;20050;-72
2023/03/26 06:36:26;;;;;;;23.25;3.47;;;;;;;-144.73;100.00;54555.47;4976072;28;20084;-71
2023/03/26 06:38:51;;;;;;;30.05;3.60;;;;;;;-144.73;100.00;54559.59;4977036;28;20030;-70
2023/03/26 06:41:17;;;;;;;26.20;3.72;;;;;;;-144.73;100.00;54543.16;4991631;28;20042;-70
2023/03/26 06:43:42;;;;;;;25.73;3.97;;;;;;;-144.73;99.85;54543.16;4976851;28;20061;-70
2023/03/26 06:46:08;;;;;;;31.77;3.80;;;;;;;-144.73;100.00;54539.06;4961190;28;20100;-69
2023/03/26 06:48:34;;;;;;;29.67;3.55;;;;;;;-144.73;100.00;54547.28;4957128;28;20042;-69
2023/03/26 06:50:59;;;;;;;19.10;3.50;;;;;;;-144.73;99.03;54580.13;4956465;28;20062;-69
2023/03/26 06:53:25;;;;;;;40.30;6.55;;;;;;;-144.73;98.39;54543.16;4973614;28;20049;-70
2023/03/26 06:55:52;;;;;;;29.92;4.57;;;;;;;-144.73;96.71;54522.63;4992576;28;20042;-69
2023/03/26 06:58:18;;;;;;;28.52;3.50;;;;;;;-144.73;96.98;54559.59;4968732;28;20477;-69
2023/03/26 07:00:43;;;;;;;21.65;3.45;;;;;;;-144.73;96.23;54592.44;4967866;28;20030;-69
2023/03/26 07:03:10;;;;;;;24.00;4.80;;;;;;;-144.73;95.42;54543.16;5009515;28;20416;-71
2023/03/26 07:05:36;;;;;;;19.30;3.25;;;;;;;-144.73;95.01;54561.63;4976363;28;20041;-70
2023/03/26 07:08:01;;;;;;;24.77;3.72;;;;;;;-144.73;93.27;54543.16;4993277;28;20105;-70
2023/03/26 07:10:27;;;;;;;22.10;3.75;;;;;;;-144.73;93.89;54553.44;4975575;28;20117;-70
2023/03/26 07:12:53;;;;;;;19.00;2.75;;;;;;;-144.73;92.76;54555.47;5008831;28;20481;-70
2023/03/26 07:15:18;;;;;;;27.92;3.70;;;;;;;-144.73;92.10;54545.22;4975976;28;20026;-70
2023/03/26 07:17:44;;;;;;;23.13;4.25;;;;;;;-144.73;91.57;54547.28;5008634;28;20473;-70
2023/03/26 07:20:10;;;;;;;26.05;3.13;;;;;;;-144.73;90.52;54520.59;4976103;28;20041;-70
2023/03/26 07:22:35;;;;;;;24.90;3.92;;;;;;;-144.73;89.12;54539.06;4992126;28;20019;-70
2023/03/26 07:25:01;;;;;;;22.67;3.65;;;;;;;-144.73;88.05;54592.44;4992776;28;20026;-69
2023/03/26 07:28:08;;;;;;;23.15;3.53;;;;;;;-144.73;86.40;54530.84;4993379;28;20022;-70
2023/03/26 07:30:50;;;;;;;24.92;4.10;;;;;;;-144.73;82.28;54553.44;4975006;28;20424;-70
2023/03/26 07:33:26;;;;;;;24.80;5.10;;;;;;;-144.73;81.03;54559.59;4992484;28;20018;-70
2023/03/26 07:36:13;;;;;;;24.45;4.13;;;;;;;-144.73;80.64;54551.38;4990915;28;20041;-70
2023/03/26 07:38:48;;;;;;;26.95;3.42;;;;;;;-144.73;80.59;54567.81;4992428;28;20040;-70
2023/03/26 07:41:34;;;;;;;37.33;4.40;;;;;;;-144.73;80.72;54567.81;4991557;28;20467;-70
2023/03/26 07:44:19;;;;;;;28.02;3.88;;;;;;;-144.73;78.69;54563.69;4955798;28;20031;-70
2023/03/26 07:46:46;;;;;;;26.35;3.88;;;;;;;-144.73;79.28;54512.38;4972630;28;20039;-70
2023/03/26 07:49:12;;;;;;;52.08;5.38;;;;;;;-144.73;79.22;54547.28;4971657;28;20114;-70
2023/03/26 07:51:38;;;;;;;47.50;3.67;;;;;;;-144.73;81.15;54539.06;4955451;28;20168;-71
2023/03/26 07:54:04;;;;;;;34.10;4.30;;;;;;;-144.73;80.47;54545.22;4955601;28;20031;-70
2023/03/26 07:56:50;;;;;;;33.20;5.43;;;;;;;-144.73;78.63;54502.13;4955166;28;20066;-70
2023/03/26 07:59:36;;;;;;;34.55;4.47;;;;;;;-144.73;77.74;54518.53;4955399;28;20023;-70
2023/03/26 08:02:29;;;;;;;39.63;4.63;;;;;;;-144.73;78.80;54563.69;4970998;28;20090;-71
2023/03/26 08:05:19;;;;;;;32.67;4.63;;;;;;;-144.73;76.87;54539.06;4955800;28;20034;-72
2023/03/26 08:07:55;;;;;;;44.15;4.32;;;;;;;-144.73;77.63;54522.63;4971191;28;20125;-71
2023/03/26 08:10:32;;;;;;;40.60;4.53;;;;;;;-144.73;76.56;54563.69;4973124;28;20026;-70
2023/03/26 08:13:21;;;;;;;34.13;6.63;;;;;;;-144.73;76.65;54498.00;4972105;28;20121;-70
2023/03/26 08:16:18;;;;;;;37.83;4.15;;;;;;;-144.73;75.15;54522.63;4955317;28;20030;-70
2023/03/26 08:19:12;;;;;;;34.47;4.65;;;;;;;-144.73;75.36;54580.13;4973042;28;20081;-71
2023/03/26 08:21:50;;;;;;;47.47;5.28;;;;;;;-144.73;74.02;54555.47;4958635;28;20043;-71
2023/03/26 08:24:26;;;;;;;30.75;5.22;;;;;;;-144.73;73.97;54551.38;4954981;28;20027;-71
2023/03/26 08:27:15;;;;;;;37.70;5.55;;;;;;;-144.73;74.48;54551.38;4954856;28;20514;-70
2023/03/26 08:30:00;;;;;;;42.90;6.28;;;;;;;-144.73;73.79;54549.31;4955101;28;20395;-70
2023/03/26 08:32:26;;;;;;;49.40;6.30;;;;;;;-144.73;74.45;54557.53;4971532;28;20057;-70
2023/03/26 08:34:51;;;;;;;39.08;5.55;;;;;;;-144.73;72.85;54547.28;4954875;28;20035;-70
2023/03/26 08:37:17;;;;;;;53.22;5.78;;;;;;;-144.73;73.35;54522.63;4953815;28;20039;-71
2023/03/26 08:39:42;;;;;;;42.28;5.43;;;;;;;-144.73;70.94;54578.06;4971226;28;20392;-71
2023/03/26 08:42:32;;;;;;;33.90;5.53;;;;;;;-144.73;72.60;54559.59;4969295;28;20039;-71
2023/03/26 08:45:16;;;;;;;45.50;6.38;;;;;;;-144.73;72.86;54565.75;4972371;28;20070;-70
2023/03/26 08:48:16;;;;;;;40.22;5.78;;;;;;;-144.73;73.21;54539.06;4971877;28;20516;-71
2023/03/26 08:51:12;;;;;;;48.30;6.32;;;;;;;-144.73;72.93;54522.63;4954020;28;20061;-71
2023/03/26 08:53:52;;;;;;;38.33;5.38;;;;;;;-144.73;70.27;54541.13;4954907;28;20030;-70
2023/03/26 08:56:28;;;;;;;49.10;5.80;;;;;;;-144.73;71.02;54514.44;4948083;28;20041;-71
2023/03/26 08:59:00;;;;;;;29.80;5.00;;;;;;;-144.73;69.55;54518.53;4950780;28;20027;-71
2023/03/26 09:01:38;;;;;;;;;;;;;;;-144.73;69.85;54547.28;4951800;28;20047;-71
2023/03/26 09:04:25;;;;;;;26.58;4.32;;;;;;;-144.73;69.79;54514.44;4970388;28;20022;-71
2023/03/26 09:07:10;;;;;;;29.23;4.93;;;;;;;-144.73;68.16;54539.06;4968390;28;20062;-71
2023/03/26 09:10:22;;;;;;;34.42;5.07;;;;;;;-144.73;69.55;54518.53;4950955;28;20034;-72
2023/03/26 09:13:09;;;;;;;38.05;5.82;;;;;;;-144.73;69.31;54504.16;4950828;28;20039;-71
2023/03/26 09:16:16;;;;;;;36.10;5.18;;;;;;;-144.73;67.81;54547.28;4955245;28;20058;-71
2023/03/26 09:19:04;;;;;;;36.25;4.85;;;;;;;-144.73;68.81;54522.63;4942562;28;20053;-71
2023/03/26 09:21:42;;;;;;;44.30;5.10;;;;;;;-144.73;69.69;54543.16;4953004;28;20509;-71
2023/03/26 09:24:26;;;;;;;35.67;4.65;;;;;;;-144.73;67.37;54502.13;4964260;28;20026;-70
2023/03/26 09:27:19;;;;;;;32.80;5.07;;;;;;;-144.73;68.41;54524.69;4971633;28;20042;-71
2023/03/26 09:30:00;;;;;;;32.17;4.75;;;;;;;-144.73;69.01;54543.16;4972177;28;20030;-71
2023/03/26 09:32:41;;;;;;;27.17;4.22;;;;;;;-144.73;67.55;54545.22;4971662;28;20038;-71
2023/03/26 09:35:42;;;;;;;43.08;5.88;;;;;;;-144.73;67.21;54481.59;4972799;28;20026;-70
2023/03/26 09:38:29;;;;;;;35.83;6.55;;;;;;;-144.73;68.25;54506.22;4972481;28;20042;-71
2023/03/26 09:41:08;;;;;;;37.45;5.50;;;;;;;-144.73;68.25;54543.16;4988463;28;20125;-70
2023/03/26 09:43:42;;;;;;;37.50;5.25;;;;;;;-144.73;66.87;54522.63;4990484;28;20057;-71
2023/03/26 09:46:25;;;;;;;39.28;5.60;;;;;;;-144.73;67.42;54526.75;4972763;28;20117;-71
2023/03/26 09:49:04;;;;;;;34.72;5.15;;;;;;;-144.73;68.04;54539.06;4989185;28;20113;-70
2023/03/26 09:51:43;;;;;;;44.78;5.55;;;;;;;-144.73;67.43;54514.44;4971830;28;20117;-70
2023/03/26 09:54:26;;;;;;;31.13;4.70;;;;;;;-144.73;66.52;54493.91;4971346;28;20489;-70
2023/03/26 09:57:16;;;;;;;36.97;5.63;;;;;;;-144.73;66.66;54485.69;4971952;28;20050;-70
2023/03/26 10:00:19;;;;;;;47.05;5.35;;;;;;;-144.73;67.30;54539.06;4973748;28;20038;-70
2023/03/26 10:02:48;;;;;;;36.58;4.82;;;;;;;-144.73;66.36;54512.38;4971766;28;20125;-70
2023/03/26 10:05:48;;;;;;;29.25;4.47;;;;;;;-144.73;65.97;54530.84;4971925;28;20129;-69
2023/03/26 10:08:30;;;;;;;41.22;4.97;;;;;;;-144.73;66.75;54522.63;4970203;28;20042;-71
2023/03/26 10:11:04;;;;;;;43.90;5.70;;;;;;;-144.73;67.46;54539.06;4989491;28;20125;-70
2023/03/26 10:13:43;;;;;;;38.72;4.22;;;;;;;-144.73;66.79;54510.31;4988867;28;20601;-71
2023/03/26 10:16:20;;;;;;;22.23;3.92;;;;;;;-144.73;65.43;54473.38;4990294;28;20031;-72
2023/03/26 10:19:17;;;;;;;21.65;3.33;;;;;;;-144.73;64.88;54498.00;4972913;28;20054;-71
2023/03/26 10:21:52;;;;;;;25.85;4.15;;;;;;;-144.73;62.84;54489.81;4987509;28;20129;-71
2023/03/26 10:24:54;;;;;;;19.83;4.07;;;;;;;-144.73;62.08;54516.47;4987853;28;20041;-71
2023/03/26 10:27:27;;;;;;;;;;;;;;;-144.73;63.66;54555.47;4987710;28;20034;-70
2023/03/26 10:30:11;;;;;;;;;;;;;;;-144.73;65.89;54555.47;4961851;28;19918;-69
2023/03/26 10:33:05;;;;;;;32.42;4.95;;;;;;;-144.73;64.77;54481.59;4981070;28;19956;-72
2023/03/26 10:35:53;;;;;;;28.73;4.90;;;;;;;-144.73;61.42;54584.22;4968573;28;20368;-69
2023/03/26 10:38:43;;;;;;;26.52;4.32;;;;;;;-144.73;63.61;54512.38;4984806;28;20039;-71
2023/03/26 10:41:26;;;;;;;34.70;4.57;;;;;;;-144.73;64.29;54551.38;4986991;28;20030;-72
2023/03/26 10:44:13;;;;;;;31.00;4.57;;;;;;;-144.73;63.72;54504.16;4971442;28;20034;-71
2023/03/26 10:46:57;;;;;;;35.20;5.15;;;;;;;-144.73;65.73;54489.81;4986900;28;20049;-71
2023/03/26 10:49:35;;;;;;;36.63;5.03;;;;;;;-144.73;64.83;54485.69;4956091;28;20031;-70
2023/03/26 10:52:11;;;;;;;29.10;5.20;;;;;;;-144.73;64.05;54547.28;4967820;28;20065;-70
2023/03/26 10:54:54;;;;;;;43.58;5.18;;;;;;;-144.73;63.43;54498.00;4951814;28;20101;-71
2023/03/26 10:57:26;;;;;;;31.60;5.45;;;;;;;-144.73;63.68;54498.00;4968489;28;20042;-71
2023/03/26 10:59:56;;;;;;;33.53;4.55;;;;;;;-144.73;63.93;54502.13;4991084;28;20026;-71
2023/03/26 11:02:28;;;;;;;35.95;6.78;;;;;;;-144.73;63.65;54510.31;4973485;28;20043;-71
2023/03/26 11:05:03;;;;;;;45.63;6.70;;;;;;;-144.73;63.27;54502.13;4974176;28;20057;-71
2023/03/26 11:07:37;;;;;;;28.80;5.68;;;;;;;-144.73;64.93;54485.69;4989111;28;20046;-71
2023/03/26 11:10:20;;;;;;;36.97;5.10;;;;;;;-144.73;62.44;54489.81;4966469;28;20077;-71
2023/03/26 11:13:28;;;;;;;38.97;6.35;;;;;;;-144.73;61.61;54522.63;4973651;28;20022;-71
2023/03/26 11:16:14;;;;;;;29.00;4.47;;;;;;;-144.73;60.79;54481.59;4955192;28;20045;-71
2023/03/26 11:19:01;;;;;;;28.83;5.03;;;;;;;-144.73;59.48;54498.00;4971031;28;20022;-72
2023/03/26 11:21:50;;;;;;;23.58;4.72;;;;;;;-144.73;59.20;54539.06;4970773;28;20030;-70
2023/03/26 11:24:31;;;;;;;28.98;4.43;;;;;;;-144.73;58.37;54502.13;4970643;28;20018;-70
2023/03/26 11:27:09;;;;;;;23.05;4.03;;;;;;;-144.73;59.55;54514.44;4970418;28;20039;-70
2023/03/26 11:29:48;;;;;;;31.15;5.55;;;;;;;-144.73;56.36;54506.22;4970223;28;20034;-71
2023/03/26 11:32:28;;;;;;;31.25;4.65;;;;;;;-144.73;57.43;54481.59;4970994;28;20065;-71